ADDS METAR Data INFO
IDs: Format: Raw Decoded Include TAF

Data at: 0127 UTC 18 Aug 2018

KBWI 180054Z 23004KT 10SM FEW055 SCT120 BKN250 27/21 A2996 RMK AO2 RAE11 SLP142 P0000 T02670206
KBWI 172354Z 26007KT 10SM -RA FEW040 SCT055 BKN120 BKN250 27/23 A2995 RMK AO2 RAB35 SLP141 P0000 60000 T02720233 10344 20272 55002
KBWI 172254Z 21005KT 10SM FEW050 SCT110 BKN160 OVC250 31/23 A2995 RMK AO2 SLP140 T03060233
KBWI 172154Z 20006KT 10SM FEW050 SCT110 BKN160 OVC250 31/23 A2995 RMK AO2 SLP140 T03110233
KBWI 172054Z 21007KT 10SM FEW050 SCT110 BKN160 BKN250 32/22 A2996 RMK AO2 SLP143 T03220222 56015
KBWI 171954Z 19009G17KT 10SM SCT045 SCT160 BKN250 33/22 A2996 RMK AO2 SLP144 T03330217
KBWI 171854Z VRB04KT 10SM SCT044 SCT110 SCT160 SCT250 33/23 A2997 RMK AO2 SLP149 T03330233
KBWI 171754Z 21006KT 10SM FEW048 SCT110 SCT160 BKN250 33/23 A3000 RMK AO2 SLP158 T03280228 10328 20250 58019
KBWI 171654Z 18006KT 10SM BKN160 BKN250 32/24 A3002 RMK AO2 SLP164 T03170239
KBWI 171554Z 20006KT 10SM BKN160 BKN250 32/23 A3004 RMK AO2 SLP171 T03170228
KBWI 171454Z VRB04KT 10SM SCT160 BKN250 31/23 A3006 RMK AO2 SLP177 T03060233 56006
KBWI 171354Z 20004KT 10SM FEW140 BKN250 29/23 A3006 RMK AO2 SLP178 T02890233
KBWI 171254Z 21004KT 8SM FEW060 FEW100 SCT140 BKN250 27/23 A3007 RMK AO2 SLP182 T02720233
KBWI 171154Z 28004KT 7SM FEW060 FEW100 SCT140 BKN250 25/24 A3008 RMK AO2 SLP183 T02500239 10250 20233 53001
KBWI 171054Z 25003KT 6SM BR FEW060 BKN100 BKN140 BKN250 24/23 A3008 RMK AO2 SLP184 T02390228
KBWI 170954Z 00000KT 7SM SCT110 SCT160 BKN250 23/23 A3007 RMK AO2 SLP181 T02330228
KBWI 170854Z 23003KT 8SM SCT120 SCT160 BKN250 24/23 A3007 RMK AO2 SLP182 T02390228 56005
KBWI 170754Z 20003KT 8SM FEW160 BKN250 24/23 A3008 RMK AO2 SLP183 T02390228
KBWI 170654Z 00000KT 9SM BKN250 24/23 A3008 RMK AO2 SLP185 T02440228
KBWI 170554Z 23003KT 10SM FEW250 25/23 A3009 RMK AO2 SLP187 T02500228 10283 20239 58002
KBWI 170454Z 00000KT 10SM FEW110 FEW250 25/23 A3010 RMK AO2 SLP191 T02500228 403330200
KBWI 170354Z 00000KT 10SM FEW110 SCT250 26/23 A3010 RMK AO2 SLP191 T02560228
KBWI 170254Z 19003KT 10SM SCT250 27/23 A3009 RMK AO2 SLP189 T02670228 50010
KBWI 170154Z 20004KT 10SM FEW160 SCT250 27/23 A3010 RMK AO2 SLP190 T02720228
KBWI 170054Z 19004KT 10SM FEW160 SCT250 28/23 A3008 RMK AO2 SLP184 T02780233
KBWI 162354Z 16004KT 10SM FEW055 SCT160 BKN250 28/24 A3006 RMK AO2 SLP178 T02830239 10333 20283 53003
KBWI 162254Z 17004KT 10SM FEW055 SCT160 BKN250 30/23 A3006 RMK AO2 SLP177 T03000233
KBWI 162154Z 16005KT 10SM SCT055 SCT085 BKN250 31/23 A3005 RMK AO2 SLP175 T03060228
KBWI 162054Z 19003KT 10SM SCT055 SCT085 BKN160 BKN250 32/21 A3005 RMK AO2 SLP175 T03220206 56012
KBWI 161954Z 20005KT 10SM SCT050 BKN160 BKN250 33/22 A3006 RMK AO2 SLP177 T03280217
KBWI 161854Z 26008KT 10SM SCT055TCU SCT110 SCT160 BKN250 33/21 A3008 RMK AO2 SLP183 TCU ALQDS T03280206
KBWI 161754Z 20006KT 10SM SCT050TCU SCT160 BKN250 33/21 A3009 RMK AO2 SLP187 TCU ALQDS T03280206 10328 20228 56007
KBWI 161654Z 00000KT 10SM SCT050TCU SCT160 BKN250 32/21 A3009 RMK AO2 SLP189 TCU W T03220211
KBWI 161554Z 00000KT 10SM FEW055 FEW110 SCT160 BKN250 32/21 A3010 RMK AO2 SLP191 T03170206
KBWI 161454Z 00000KT 10SM FEW110 SCT160 BKN250 29/21 A3011 RMK AO2 SLP194 T02940211 51007
KBWI 161354Z 32003KT 10SM SCT160 OVC250 28/22 A3011 RMK AO2 SLP193 T02780217